Time;durP1;ratioP1;P1;durP2;ratioP2;P2;SDS_P1;SDS_P2;PMS_P1;PMS_P2;Temp;Humidity;BMP_temperature;BMP_pressure;BME280_temperature;BME280_humidity;BME280_pressure;Samples;Min_cycle;Max_cycle;Signal;HPM_P1;HPM_P2
2021/08/03 00:01:23;;;;;;;2.83;0.88;;;;;;;;;;5046572;28;20059;-71
2021/08/03 00:03:58;;;;;;;1.73;1.10;;;;;;;;;;5042770;28;20065;-71
2021/08/03 00:06:32;;;;;;;2.15;1.27;;;;;;;;;;5045826;28;20045;-71
2021/08/03 00:09:01;;;;;;;1.77;1.05;;;;;;;;;;5048623;28;20072;-71
2021/08/03 00:11:30;;;;;;;1.60;1.02;;;;;;;;;;5046930;28;20076;-72
2021/08/03 00:13:59;;;;;;;2.50;1.45;;;;;;;;;;5048023;28;20081;-74
2021/08/03 00:16:28;;;;;;;1.30;1.10;;;;;;;;;;5052022;28;20091;-74
2021/08/03 00:18:56;;;;;;;4.70;1.40;;;;;;;;;;5051495;28;20049;-71
2021/08/03 00:21:25;;;;;;;1.25;1.00;;;;;;;;;;5052314;28;20059;-70
2021/08/03 00:23:54;;;;;;;3.03;1.13;;;;;;;;;;5049468;28;20504;-71
2021/08/03 00:26:23;;;;;;;1.98;1.40;;;;;;;;;;5050719;28;20135;-71
2021/08/03 00:28:51;;;;;;;1.73;1.15;;;;;;;;;;5048222;28;20140;-72
2021/08/03 00:31:21;;;;;;;2.30;1.35;;;;;;;;;;5048238;28;20157;-71
2021/08/03 00:33:51;;;;;;;3.28;1.60;;;;;;;;;;5051778;28;20072;-71
2021/08/03 00:36:20;;;;;;;3.42;1.45;;;;;;;;;;5053075;28;20060;-72
2021/08/03 00:38:48;;;;;;;3.03;1.40;;;;;;;;;;5050775;28;20435;-71
2021/08/03 00:41:20;;;;;;;1.90;1.40;;;;;;;;;;5051724;28;20148;-71
2021/08/03 00:43:48;;;;;;;4.95;1.65;;;;;;;;;;5050440;28;20057;-71
2021/08/03 00:46:16;;;;;;;2.58;1.42;;;;;;;;;;5050900;28;20044;-71
2021/08/03 00:48:45;;;;;;;2.20;1.50;;;;;;;;;;5047813;28;20180;-72
2021/08/03 00:51:13;;;;;;;1.88;1.20;;;;;;;;;;5050609;28;20063;-74
2021/08/03 00:53:43;;;;;;;3.38;1.40;;;;;;;;;;5052111;28;20131;-71
2021/08/03 00:56:12;;;;;;;2.55;1.50;;;;;;;;;;5051607;28;20072;-73
2021/08/03 00:58:41;;;;;;;2.28;1.33;;;;;;;;;;5051408;28;20105;-73
2021/08/03 01:01:09;;;;;;;2.55;1.40;;;;;;;;;;5052804;28;20143;-74
2021/08/03 01:03:38;;;;;;;2.03;1.13;;;;;;;;;;5044888;23;20050;-56
2021/08/03 01:06:08;;;;;;;3.80;1.63;;;;;;;;;;4984218;28;20144;-58
2021/08/03 01:08:40;;;;;;;2.03;1.60;;;;;;;;;;4982337;28;20134;-57
2021/08/03 01:11:11;;;;;;;3.00;1.50;;;;;;;;;;4973607;28;20090;-57
2021/08/03 01:13:47;;;;;;;2.72;1.50;;;;;;;;;;4983249;28;20149;-59
2021/08/03 01:16:21;;;;;;;1.98;1.20;;;;;;;;;;4992714;28;20054;-58
2021/08/03 01:18:55;;;;;;;2.15;1.30;;;;;;;;;;5001121;28;20066;-58
2021/08/03 01:21:50;;;;;;;2.53;1.55;;;;;;;;;;5002947;28;20137;-57
2021/08/03 01:24:46;;;;;;;1.70;1.23;;;;;;;;;;4948379;28;20066;-58
2021/08/03 01:27:44;;;;;;;1.98;1.27;;;;;;;;;;4967819;28;20057;-59
2021/08/03 01:30:14;;;;;;;2.00;1.35;;;;;;;;;;4932036;29;20183;-58
2021/08/03 01:32:43;;;;;;;2.08;1.38;;;;;;;;;;4977910;28;20100;-58
2021/08/03 01:35:12;;;;;;;1.70;1.20;;;;;;;;;;4993918;28;20517;-57
2021/08/03 01:37:41;;;;;;;2.42;1.40;;;;;;;;;;4996337;28;20119;-58
2021/08/03 01:40:12;;;;;;;2.30;1.33;;;;;;;;;;5006061;28;20077;-57
2021/08/03 01:42:42;;;;;;;3.45;1.63;;;;;;;;;;4997625;28;20058;-57
2021/08/03 01:45:11;;;;;;;1.95;1.60;;;;;;;;;;5013208;28;20050;-58
2021/08/03 01:47:41;;;;;;;1.67;1.10;;;;;;;;;;5001754;28;20117;-57
2021/08/03 01:50:10;;;;;;;3.15;1.67;;;;;;;;;;5001333;28;20061;-57
2021/08/03 01:52:39;;;;;;;2.03;1.38;;;;;;;;;;5002847;28;20157;-57
2021/08/03 01:55:09;;;;;;;1.98;1.23;;;;;;;;;;5015609;28;20101;-58
2021/08/03 01:57:41;;;;;;;3.15;1.77;;;;;;;;;;5008523;28;20133;-57
2021/08/03 02:00:09;;;;;;;2.40;1.55;;;;;;;;;;5001622;28;20149;-57
2021/08/03 02:02:38;;;;;;;3.45;1.60;;;;;;;;;;4992914;28;20457;-58
2021/08/03 02:05:09;;;;;;;2.53;1.70;;;;;;;;;;5007490;28;20052;-57
2021/08/03 02:07:37;;;;;;;2.55;1.67;;;;;;;;;;5003828;28;20364;-57
2021/08/03 02:10:06;;;;;;;3.40;1.77;;;;;;;;;;4994111;28;20046;-57
2021/08/03 02:12:35;;;;;;;3.35;1.65;;;;;;;;;;4998791;28;20050;-57
2021/08/03 02:15:05;;;;;;;2.80;1.63;;;;;;;;;;5001409;28;20087;-57
2021/08/03 02:17:33;;;;;;;3.33;1.52;;;;;;;;;;5014003;28;20442;-57
2021/08/03 02:20:02;;;;;;;4.97;1.73;;;;;;;;;;5012611;28;20073;-57
2021/08/03 02:22:32;;;;;;;3.42;1.85;;;;;;;;;;5008261;28;20110;-58
2021/08/03 02:25:00;;;;;;;1.95;1.60;;;;;;;;;;5014657;28;20105;-57
2021/08/03 02:27:28;;;;;;;3.65;1.48;;;;;;;;;;5015243;28;20117;-58
2021/08/03 02:29:57;;;;;;;2.17;1.40;;;;;;;;;;5012128;28;20077;-58
2021/08/03 02:32:28;;;;;;;3.47;1.50;;;;;;;;;;5009659;28;20084;-57
2021/08/03 02:34:59;;;;;;;2.20;1.40;;;;;;;;;;5014373;28;20145;-57
2021/08/03 02:37:31;;;;;;;2.55;1.70;;;;;;;;;;5015723;28;20085;-58
2021/08/03 02:40:02;;;;;;;2.20;1.30;;;;;;;;;;5014475;28;20121;-57
2021/08/03 02:42:31;;;;;;;2.85;1.60;;;;;;;;;;5014525;28;20117;-57
2021/08/03 02:45:01;;;;;;;3.20;1.80;;;;;;;;;;5012577;28;20129;-57
2021/08/03 02:47:36;;;;;;;1.67;1.27;;;;;;;;;;5013657;28;20080;-57
2021/08/03 02:50:08;;;;;;;4.07;1.67;;;;;;;;;;5010745;28;20467;-58
2021/08/03 02:52:39;;;;;;;2.40;1.60;;;;;;;;;;5009487;28;20077;-57
2021/08/03 02:55:11;;;;;;;3.08;1.70;;;;;;;;;;5010112;28;20042;-58
2021/08/03 02:57:40;;;;;;;3.80;1.70;;;;;;;;;;5005571;28;20073;-56
2021/08/03 03:00:09;;;;;;;3.05;1.67;;;;;;;;;;5003666;28;20132;-57
2021/08/03 03:02:39;;;;;;;3.05;1.63;;;;;;;;;;5005551;28;20558;-57
2021/08/03 03:05:12;;;;;;;4.20;1.70;;;;;;;;;;5011466;28;20389;-58
2021/08/03 03:07:41;;;;;;;2.28;1.35;;;;;;;;;;5013363;28;20050;-57
2021/08/03 03:10:14;;;;;;;1.88;1.50;;;;;;;;;;5014635;28;20129;-57
2021/08/03 03:12:44;;;;;;;3.30;1.55;;;;;;;;;;4995074;28;20065;-57
2021/08/03 03:15:13;;;;;;;3.67;1.90;;;;;;;;;;5014103;28;20145;-57
2021/08/03 03:17:41;;;;;;;3.83;1.85;;;;;;;;;;5004891;28;20132;-57
2021/08/03 03:20:10;;;;;;;2.35;1.50;;;;;;;;;;5000842;28;20050;-57
2021/08/03 03:22:40;;;;;;;3.25;1.80;;;;;;;;;;5012984;28;20107;-58
2021/08/03 03:25:13;;;;;;;3.08;1.58;;;;;;;;;;5013501;28;20502;-57
2021/08/03 03:27:43;;;;;;;3.88;1.63;;;;;;;;;;5011633;28;20049;-57
2021/08/03 03:30:14;;;;;;;3.25;1.85;;;;;;;;;;3582532;28;10020750;-58
2021/08/03 03:32:44;;;;;;;4.35;1.35;;;;;;;;;;2065510;28;10002129;-58
2021/08/03 03:35:13;;;;;;;6.70;1.90;;;;;;;;;;4995900;28;20145;-57
2021/08/03 03:37:42;;;;;;;3.25;1.73;;;;;;;;;;5013450;28;20085;-57
2021/08/03 03:40:15;;;;;;;3.10;1.90;;;;;;;;;;5013538;28;20042;-57
2021/08/03 03:42:44;;;;;;;3.38;1.85;;;;;;;;;;5014229;28;20161;-58
2021/08/03 03:45:13;;;;;;;3.85;1.85;;;;;;;;;;5008738;28;20162;-57
2021/08/03 03:47:43;;;;;;;3.38;1.52;;;;;;;;;;5011371;28;20076;-57
2021/08/03 03:50:13;;;;;;;3.38;1.80;;;;;;;;;;5011700;28;20042;-57
2021/08/03 03:52:44;;;;;;;3.47;2.10;;;;;;;;;;5016353;28;20049;-57
2021/08/03 03:55:16;;;;;;;4.00;1.80;;;;;;;;;;5013340;28;20080;-57
2021/08/03 03:57:45;;;;;;;2.63;1.65;;;;;;;;;;5014647;28;20105;-57
2021/08/03 04:00:14;;;;;;;2.97;1.80;;;;;;;;;;5013791;28;20137;-57
2021/08/03 04:02:43;;;;;;;2.97;1.95;;;;;;;;;;5015535;28;20133;-57
2021/08/03 04:05:14;;;;;;;10.45;1.92;;;;;;;;;;5014963;28;20057;-57
2021/08/03 04:07:49;;;;;;;3.83;2.10;;;;;;;;;;5015057;28;20145;-57
2021/08/03 04:10:18;;;;;;;;;;;;;;;;;;5015874;28;20103;-58
2021/08/03 04:12:48;;;;;;;3.10;2.00;;;;;;;;;;5015534;28;20017;-57
2021/08/03 04:15:16;;;;;;;2.70;2.05;;;;;;;;;;5011871;28;20050;-57
2021/08/03 04:17:45;;;;;;;6.07;2.17;;;;;;;;;;5016633;28;20101;-57
2021/08/03 04:20:13;;;;;;;9.77;2.00;;;;;;;;;;5015064;28;20042;-57
2021/08/03 04:22:42;;;;;;;3.67;2.00;;;;;;;;;;5007693;28;20081;-57
2021/08/03 04:25:10;;;;;;;5.53;2.05;;;;;;;;;;5014399;28;20046;-57
2021/08/03 04:27:39;;;;;;;3.38;1.88;;;;;;;;;;5012695;28;20267;-57
2021/08/03 04:30:10;;;;;;;3.28;1.65;;;;;;;;;;5015778;28;20129;-57
2021/08/03 04:32:38;;;;;;;3.30;1.90;;;;;;;;;;5007149;28;20101;-58
2021/08/03 04:35:08;;;;;;;2.88;1.73;;;;;;;;;;5013950;28;20054;-57
2021/08/03 04:37:40;;;;;;;3.28;1.90;;;;;;;;;;5014784;28;20060;-57
2021/08/03 04:40:09;;;;;;;3.55;1.83;;;;;;;;;;5015465;28;20153;-58
2021/08/03 04:42:37;;;;;;;2.70;2.05;;;;;;;;;;5011647;28;20136;-57
2021/08/03 04:45:07;;;;;;;3.80;1.90;;;;;;;;;;5009756;28;20053;-58
2021/08/03 04:47:42;;;;;;;3.75;2.05;;;;;;;;;;5009946;28;20125;-57
2021/08/03 04:50:11;;;;;;;5.40;1.83;;;;;;;;;;5008562;28;20046;-57
2021/08/03 04:52:39;;;;;;;4.45;2.25;;;;;;;;;;5011740;28;20065;-57
2021/08/03 04:55:09;;;;;;;2.90;2.05;;;;;;;;;;5011020;28;20133;-57
2021/08/03 04:57:37;;;;;;;5.65;2.00;;;;;;;;;;5011254;28;20050;-57
2021/08/03 05:00:06;;;;;;;4.55;1.88;;;;;;;;;;5011461;28;20042;-58
2021/08/03 05:02:35;;;;;;;3.22;1.98;;;;;;;;;;5013532;28;20128;-57
2021/08/03 05:05:05;;;;;;;6.13;2.20;;;;;;;;;;4968549;28;1113495;-57
2021/08/03 05:07:33;;;;;;;3.20;1.75;;;;;;;;;;5013890;28;20505;-57
2021/08/03 05:10:02;;;;;;;3.85;2.40;;;;;;;;;;5011234;28;20053;-57
2021/08/03 05:12:32;;;;;;;2.97;1.75;;;;;;;;;;5007011;28;20056;-58
2021/08/03 05:15:01;;;;;;;5.75;2.05;;;;;;;;;;5010403;28;20135;-56
2021/08/03 05:17:29;;;;;;;3.20;1.80;;;;;;;;;;5010078;28;20121;-57
2021/08/03 05:19:58;;;;;;;3.65;2.13;;;;;;;;;;5009716;28;20050;-58
2021/08/03 05:22:28;;;;;;;3.00;1.90;;;;;;;;;;5009865;28;20081;-58
2021/08/03 05:24:56;;;;;;;3.20;2.15;;;;;;;;;;4990959;28;20050;-58
2021/08/03 05:27:24;;;;;;;3.90;2.10;;;;;;;;;;4993212;28;20053;-57
2021/08/03 05:29:53;;;;;;;5.07;2.25;;;;;;;;;;5008881;28;20054;-57
2021/08/03 05:32:21;;;;;;;3.22;2.20;;;;;;;;;;5002071;28;20421;-57
2021/08/03 05:34:49;;;;;;;7.53;2.65;;;;;;;;;;5007729;28;20431;-57
2021/08/03 05:37:18;;;;;;;4.03;2.30;;;;;;;;;;5003377;28;20056;-57
2021/08/03 05:39:47;;;;;;;3.67;2.17;;;;;;;;;;5010444;28;20079;-58
2021/08/03 05:42:16;;;;;;;6.07;2.22;;;;;;;;;;5010478;28;20081;-57
2021/08/03 05:44:44;;;;;;;6.25;2.30;;;;;;;;;;5009157;28;20058;-58
2021/08/03 05:47:12;;;;;;;5.00;2.15;;;;;;;;;;5011057;28;20060;-57
2021/08/03 05:49:40;;;;;;;4.47;2.35;;;;;;;;;;5013105;28;20084;-58
2021/08/03 05:52:09;;;;;;;6.15;2.53;;;;;;;;;;5007136;28;20478;-57
2021/08/03 05:54:37;;;;;;;3.55;2.17;;;;;;;;;;4997697;28;20494;-57
2021/08/03 05:57:07;;;;;;;3.92;2.53;;;;;;;;;;5006700;28;20056;-58
2021/08/03 05:59:35;;;;;;;5.10;2.38;;;;;;;;;;5012659;28;20042;-58
2021/08/03 06:02:03;;;;;;;4.82;2.65;;;;;;;;;;5010948;28;20132;-58
2021/08/03 06:04:32;;;;;;;3.58;2.58;;;;;;;;;;5009485;28;20041;-57
2021/08/03 06:07:02;;;;;;;3.78;2.42;;;;;;;;;;4997781;28;20042;-57
2021/08/03 06:09:32;;;;;;;5.30;2.20;;;;;;;;;;5002674;28;20580;-57
2021/08/03 06:12:03;;;;;;;3.08;2.05;;;;;;;;;;5008085;28;20426;-57
2021/08/03 06:14:35;;;;;;;4.10;2.47;;;;;;;;;;5003359;28;20407;-57
2021/08/03 06:17:05;;;;;;;6.43;2.20;;;;;;;;;;4996947;28;20050;-58
2021/08/03 06:19:38;;;;;;;4.07;2.40;;;;;;;;;;5001593;28;20096;-58
2021/08/03 06:22:06;;;;;;;3.78;2.28;;;;;;;;;;5003372;28;20112;-58
2021/08/03 06:24:35;;;;;;;4.07;2.78;;;;;;;;;;5007230;28;20073;-58
2021/08/03 06:27:03;;;;;;;4.22;2.60;;;;;;;;;;5010392;28;20471;-58
2021/08/03 06:29:33;;;;;;;4.53;2.83;;;;;;;;;;5005968;28;20118;-57
2021/08/03 06:32:03;;;;;;;4.05;2.40;;;;;;;;;;5009962;28;20077;-57
2021/08/03 06:34:32;;;;;;;4.13;2.67;;;;;;;;;;5000664;28;20084;-58
2021/08/03 06:37:00;;;;;;;4.10;2.40;;;;;;;;;;5012826;28;20092;-58
2021/08/03 06:39:28;;;;;;;5.07;2.40;;;;;;;;;;5014951;28;20114;-58
2021/08/03 06:41:58;;;;;;;5.25;2.40;;;;;;;;;;5016335;28;20412;-57
2021/08/03 06:44:30;;;;;;;5.68;2.53;;;;;;;;;;5023871;28;20196;-58
2021/08/03 06:47:01;;;;;;;4.72;2.53;;;;;;;;;;5002700;28;20070;-58
2021/08/03 06:49:33;;;;;;;5.95;2.30;;;;;;;;;;5011872;28;20049;-58
2021/08/03 06:52:01;;;;;;;2.92;2.05;;;;;;;;;;5008671;28;20101;-58
2021/08/03 06:54:31;;;;;;;4.50;2.58;;;;;;;;;;4996670;28;20137;-58
2021/08/03 06:57:04;;;;;;;3.45;2.10;;;;;;;;;;5008400;28;20049;-59
2021/08/03 06:59:35;;;;;;;4.95;2.78;;;;;;;;;;5002108;28;20046;-58
2021/08/03 07:02:06;;;;;;;4.93;2.28;;;;;;;;;;5012339;28;20049;-57
2021/08/03 07:04:38;;;;;;;5.15;2.80;;;;;;;;;;5010149;28;20050;-58
2021/08/03 07:07:06;;;;;;;5.03;2.45;;;;;;;;;;5007162;28;20085;-58
2021/08/03 07:09:34;;;;;;;3.67;2.10;;;;;;;;;;4986741;28;20121;-58
2021/08/03 07:12:05;;;;;;;3.92;2.30;;;;;;;;;;5012937;28;20478;-57
2021/08/03 07:14:34;;;;;;;3.33;2.00;;;;;;;;;;4998306;28;20046;-58
2021/08/03 07:17:05;;;;;;;3.78;2.13;;;;;;;;;;5005059;28;20482;-57
2021/08/03 07:19:34;;;;;;;3.13;2.10;;;;;;;;;;4999234;28;20045;-58
2021/08/03 07:22:03;;;;;;;4.65;2.22;;;;;;;;;;4990803;28;20132;-58
2021/08/03 07:24:32;;;;;;;5.03;2.08;;;;;;;;;;5008312;28;20058;-57
2021/08/03 07:27:00;;;;;;;6.50;2.20;;;;;;;;;;4998292;28;20061;-58
2021/08/03 07:29:29;;;;;;;6.00;2.50;;;;;;;;;;5006943;28;20049;-60
2021/08/03 07:31:58;;;;;;;5.72;2.17;;;;;;;;;;5009207;28;20054;-58
2021/08/03 07:34:29;;;;;;;4.55;2.22;;;;;;;;;;5009845;28;20049;-57
2021/08/03 07:36:57;;;;;;;2.80;1.80;;;;;;;;;;4999461;28;20140;-57
2021/08/03 07:39:26;;;;;;;3.50;1.83;;;;;;;;;;4999863;28;20472;-57
2021/08/03 07:41:55;;;;;;;4.80;1.83;;;;;;;;;;4997622;28;20137;-57
2021/08/03 07:44:24;;;;;;;3.20;1.75;;;;;;;;;;5009829;28;20049;-57
2021/08/03 07:46:53;;;;;;;4.05;2.05;;;;;;;;;;5014110;28;20161;-57
2021/08/03 07:49:22;;;;;;;5.90;2.10;;;;;;;;;;5015198;28;20056;-57
2021/08/03 07:51:53;;;;;;;3.13;1.83;;;;;;;;;;5013643;28;20074;-57
2021/08/03 07:54:21;;;;;;;2.55;1.50;;;;;;;;;;5003489;28;21088;-56
2021/08/03 07:56:50;;;;;;;2.78;1.48;;;;;;;;;;5011769;28;20074;-57
2021/08/03 07:59:19;;;;;;;2.25;1.42;;;;;;;;;;5010914;28;20590;-57
2021/08/03 08:01:47;;;;;;;2.75;1.85;;;;;;;;;;5029668;28;20103;-57
2021/08/03 08:04:16;;;;;;;2.90;1.88;;;;;;;;;;5012206;28;20272;-58
2021/08/03 08:06:45;;;;;;;5.22;1.63;;;;;;;;;;5005876;28;20050;-57
2021/08/03 08:09:20;;;;;;;3.90;1.60;;;;;;;;;;5021215;28;20045;-57
2021/08/03 08:11:49;;;;;;;2.97;1.52;;;;;;;;;;5007378;28;20236;-57
2021/08/03 08:14:17;;;;;;;3.03;1.52;;;;;;;;;;5002295;28;20046;-57
2021/08/03 08:16:46;;;;;;;2.90;1.70;;;;;;;;;;5006541;28;20190;-57
2021/08/03 08:19:15;;;;;;;2.78;1.63;;;;;;;;;;4998697;28;20216;-58
2021/08/03 08:21:44;;;;;;;3.75;1.27;;;;;;;;;;5004226;28;20237;-57
2021/08/03 08:24:12;;;;;;;2.40;1.30;;;;;;;;;;5001606;28;20054;-57
2021/08/03 08:26:42;;;;;;;4.40;1.55;;;;;;;;;;5006170;28;20046;-58
2021/08/03 08:29:10;;;;;;;2.75;1.40;;;;;;;;;;5008023;28;20050;-57
2021/08/03 08:31:39;;;;;;;2.22;1.33;;;;;;;;;;5020298;28;20073;-57
2021/08/03 08:34:08;;;;;;;2.60;1.48;;;;;;;;;;5013997;28;20405;-58
2021/08/03 08:36:36;;;;;;;2.28;1.42;;;;;;;;;;5010274;28;20046;-58
2021/08/03 08:39:04;;;;;;;2.55;1.25;;;;;;;;;;5016338;28;20073;-58
2021/08/03 08:41:34;;;;;;;2.47;1.27;;;;;;;;;;5001812;28;20046;-58
2021/08/03 08:44:04;;;;;;;2.20;0.98;;;;;;;;;;5020077;28;20103;-58
2021/08/03 08:46:33;;;;;;;3.00;1.40;;;;;;;;;;5012019;28;20478;-57
2021/08/03 08:49:02;;;;;;;1.73;1.23;;;;;;;;;;5018390;28;20049;-58
2021/08/03 08:51:31;;;;;;;1.58;1.17;;;;;;;;;;5012264;28;20069;-58
2021/08/03 08:54:00;;;;;;;1.80;1.25;;;;;;;;;;5018936;28;20053;-58
2021/08/03 08:56:28;;;;;;;1.40;0.80;;;;;;;;;;5008901;28;20683;-58
2021/08/03 08:58:57;;;;;;;2.72;1.00;;;;;;;;;;5008981;28;20054;-58
2021/08/03 09:01:26;;;;;;;4.47;1.08;;;;;;;;;;5010769;28;20447;-58
2021/08/03 09:03:55;;;;;;;1.88;1.20;;;;;;;;;;5017173;28;20603;-58
2021/08/03 09:06:24;;;;;;;2.00;0.93;;;;;;;;;;5011595;28;20128;-58
2021/08/03 09:08:53;;;;;;;2.08;1.05;;;;;;;;;;5023905;28;20076;-58
2021/08/03 09:11:22;;;;;;;1.38;1.00;;;;;;;;;;5016663;28;20404;-58
2021/08/03 09:13:53;;;;;;;4.38;1.40;;;;;;;;;;5003497;28;20580;-58
2021/08/03 09:16:22;;;;;;;2.05;1.02;;;;;;;;;;5008237;28;20081;-58
2021/08/03 09:18:54;;;;;;;1.65;1.40;;;;;;;;;;5020029;28;20109;-59
2021/08/03 09:21:24;;;;;;;2.90;1.40;;;;;;;;;;5010562;28;20123;-58
2021/08/03 09:23:54;;;;;;;2.10;1.17;;;;;;;;;;5010127;28;20050;-59
2021/08/03 09:26:39;;;;;;;2.13;1.35;;;;;;;;;;5008613;28;20157;-59
2021/08/03 09:29:09;;;;;;;3.90;1.00;;;;;;;;;;5000856;28;20084;-58
2021/08/03 09:31:38;;;;;;;2.75;1.40;;;;;;;;;;5010456;28;20046;-59
2021/08/03 09:34:15;;;;;;;2.83;1.38;;;;;;;;;;5006984;28;20050;-59
2021/08/03 09:36:47;;;;;;;2.80;1.50;;;;;;;;;;5011151;28;20049;-58
2021/08/03 09:39:34;;;;;;;4.03;1.55;;;;;;;;;;5007331;28;20127;-58
2021/08/03 09:42:05;;;;;;;4.22;1.48;;;;;;;;;;5007827;28;20042;-59
2021/08/03 09:44:34;;;;;;;3.13;1.15;;;;;;;;;;5019163;28;20065;-58
2021/08/03 09:47:03;;;;;;;4.20;1.52;;;;;;;;;;4994741;28;20307;-59
2021/08/03 09:49:37;;;;;;;2.83;1.30;;;;;;;;;;4990248;28;20050;-59
2021/08/03 09:52:06;;;;;;;2.17;1.50;;;;;;;;;;5007156;28;20042;-58
2021/08/03 09:54:36;;;;;;;2.25;1.15;;;;;;;;;;5001863;28;20085;-59
2021/08/03 09:57:06;;;;;;;2.88;1.60;;;;;;;;;;5012149;28;20506;-58
2021/08/03 09:59:35;;;;;;;1.92;1.30;;;;;;;;;;5013227;28;20053;-59
2021/08/03 10:02:04;;;;;;;2.28;1.48;;;;;;;;;;5004348;28;20042;-59
2021/08/03 10:04:33;;;;;;;2.60;1.40;;;;;;;;;;5003041;28;20591;-59
2021/08/03 10:07:03;;;;;;;5.90;1.70;;;;;;;;;;5002687;28;20061;-59
2021/08/03 10:09:34;;;;;;;1.90;1.17;;;;;;;;;;5011060;28;20041;-59
2021/08/03 10:12:03;;;;;;;2.85;1.38;;;;;;;;;;5004653;28;20041;-58
2021/08/03 10:14:31;;;;;;;2.17;1.30;;;;;;;;;;5006101;28;20168;-58
2021/08/03 10:17:00;;;;;;;2.53;1.48;;;;;;;;;;5005271;28;20180;-59
2021/08/03 10:19:29;;;;;;;3.20;1.50;;;;;;;;;;4995002;28;20054;-58
2021/08/03 10:22:06;;;;;;;1.98;1.40;;;;;;;;;;5005911;28;20428;-59
2021/08/03 10:24:36;;;;;;;2.42;1.30;;;;;;;;;;5006633;28;20222;-58
2021/08/03 10:27:09;;;;;;;2.53;1.27;;;;;;;;;;5006816;28;20072;-59
2021/08/03 10:29:40;;;;;;;1.98;1.08;;;;;;;;;;5012888;28;20053;-58
2021/08/03 10:32:29;;;;;;;3.00;1.50;;;;;;;;;;5004765;28;20140;-59
2021/08/03 10:35:01;;;;;;;3.40;1.25;;;;;;;;;;5000971;28;20133;-58
2021/08/03 10:37:48;;;;;;;1.60;1.23;;;;;;;;;;4995352;28;20089;-58
2021/08/03 10:40:17;;;;;;;5.07;1.40;;;;;;;;;;5003963;28;20054;-58
2021/08/03 10:43:10;;;;;;;1.95;1.40;;;;;;;;;;4999765;28;20360;-58
2021/08/03 10:45:38;;;;;;;3.88;1.30;;;;;;;;;;5005227;28;20140;-59
2021/08/03 10:48:07;;;;;;;1.90;1.33;;;;;;;;;;5009147;28;20046;-59
2021/08/03 10:50:38;;;;;;;2.35;1.50;;;;;;;;;;4997501;28;20158;-58
2021/08/03 10:53:06;;;;;;;3.00;1.40;;;;;;;;;;5011799;28;20462;-58
2021/08/03 10:55:42;;;;;;;2.28;1.60;;;;;;;;;;5003989;28;20152;-59
2021/08/03 10:58:23;;;;;;;3.95;1.58;;;;;;;;;;5004003;28;20512;-58
2021/08/03 11:00:53;;;;;;;2.00;1.40;;;;;;;;;;4998757;28;20085;-59
2021/08/03 11:03:40;;;;;;;4.35;1.60;;;;;;;;;;5008170;28;20520;-59
2021/08/03 11:06:34;;;;;;;3.33;1.60;;;;;;;;;;5007431;28;20054;-58
2021/08/03 11:09:03;;;;;;;3.83;1.63;;;;;;;;;;4995065;28;20042;-59
2021/08/03 11:11:31;;;;;;;2.20;1.40;;;;;;;;;;5002251;28;20570;-58
2021/08/03 11:14:04;;;;;;;1.58;1.33;;;;;;;;;;5003948;28;20173;-59
2021/08/03 11:16:50;;;;;;;4.13;1.38;;;;;;;;;;5003651;28;20046;-59
2021/08/03 11:19:30;;;;;;;4.15;1.40;;;;;;;;;;4995375;28;20596;-59
2021/08/03 11:22:00;;;;;;;3.97;1.40;;;;;;;;;;5003265;28;20137;-59
2021/08/03 11:24:42;;;;;;;3.42;1.50;;;;;;;;;;5003159;28;20050;-59
2021/08/03 11:27:11;;;;;;;5.00;1.60;;;;;;;;;;5002474;28;20078;-58
2021/08/03 11:29:41;;;;;;;2.20;1.38;;;;;;;;;;4999142;28;20107;-59
2021/08/03 11:32:10;;;;;;;4.60;1.77;;;;;;;;;;5005400;28;20064;-58
2021/08/03 11:34:40;;;;;;;3.42;1.30;;;;;;;;;;5004895;28;20333;-58
2021/08/03 11:37:11;;;;;;;1.83;1.40;;;;;;;;;;5004566;28;20077;-58
2021/08/03 11:39:41;;;;;;;4.80;1.67;;;;;;;;;;5009033;28;20046;-59
2021/08/03 11:42:10;;;;;;;3.50;1.50;;;;;;;;;;5004132;28;20050;-59
2021/08/03 11:44:39;;;;;;;2.47;1.50;;;;;;;;;;5005961;28;20473;-59
2021/08/03 11:47:13;;;;;;;3.90;1.65;;;;;;;;;;5004736;28;20131;-59
2021/08/03 11:49:43;;;;;;;4.30;2.10;;;;;;;;;;5008632;28;20054;-58
2021/08/03 11:52:17;;;;;;;3.28;1.52;;;;;;;;;;4991350;28;20105;-58
2021/08/03 11:54:47;;;;;;;5.70;2.00;;;;;;;;;;4991195;28;20112;-58
2021/08/03 11:57:25;;;;;;;3.13;1.90;;;;;;;;;;4997693;28;20041;-58
2021/08/03 12:00:05;;;;;;;4.90;1.75;;;;;;;;;;5007525;28;20081;-58
2021/08/03 12:02:34;;;;;;;3.75;1.73;;;;;;;;;;5000146;28;20137;-59
2021/08/03 12:05:10;;;;;;;2.45;1.77;;;;;;;;;;5009976;28;20049;-59
2021/08/03 12:07:40;;;;;;;4.93;1.58;;;;;;;;;;4988538;28;20116;-58
2021/08/03 12:10:10;;;;;;;2.72;1.42;;;;;;;;;;5001749;28;20100;-58
2021/08/03 12:12:43;;;;;;;3.30;1.38;;;;;;;;;;5005019;28;20046;-58
2021/08/03 12:15:12;;;;;;;2.17;1.50;;;;;;;;;;5004198;28;20054;-58
2021/08/03 12:17:41;;;;;;;2.95;1.27;;;;;;;;;;5002271;28;20053;-59
2021/08/03 12:20:30;;;;;;;1.65;1.30;;;;;;;;;;4999977;28;20411;-58
2021/08/03 12:23:10;;;;;;;3.28;1.70;;;;;;;;;;5000918;28;20056;-59
2021/08/03 12:25:46;;;;;;;2.90;1.30;;;;;;;;;;5009651;28;20042;-58
2021/08/03 12:28:27;;;;;;;2.08;1.50;;;;;;;;;;5001266;28;20057;-59
2021/08/03 12:30:55;;;;;;;2.42;1.35;;;;;;;;;;5010874;28;20128;-59
2021/08/03 12:33:31;;;;;;;1.63;1.30;;;;;;;;;;4992152;28;20296;-58
2021/08/03 12:36:06;;;;;;;2.45;1.40;;;;;;;;;;5001138;28;20068;-58
2021/08/03 12:38:38;;;;;;;1.73;1.40;;;;;;;;;;5007776;28;20054;-59
2021/08/03 12:41:16;;;;;;;3.33;1.58;;;;;;;;;;4991714;28;20429;-59
2021/08/03 12:43:45;;;;;;;2.28;1.20;;;;;;;;;;4999018;28;20096;-59
2021/08/03 12:46:13;;;;;;;2.85;1.15;;;;;;;;;;5009451;28;20049;-58
2021/08/03 12:48:51;;;;;;;2.50;1.30;;;;;;;;;;5011809;28;22476;-59
2021/08/03 12:51:27;;;;;;;1.70;1.27;;;;;;;;;;4990213;28;20042;-58
2021/08/03 12:54:11;;;;;;;1.90;1.58;;;;;;;;;;4996655;28;20053;-59
2021/08/03 12:56:52;;;;;;;3.70;1.27;;;;;;;;;;5006005;28;20401;-58
2021/08/03 12:59:37;;;;;;;1.77;1.20;;;;;;;;;;5013943;28;20053;-59
2021/08/03 13:02:06;;;;;;;1.97;1.10;;;;;;;;;;5007324;28;20138;-59
2021/08/03 13:04:35;;;;;;;1.15;1.05;;;;;;;;;;5004425;28;20151;-59
2021/08/03 13:07:03;;;;;;;1.67;1.45;;;;;;;;;;5007118;28;20540;-59
2021/08/03 13:09:34;;;;;;;2.90;1.30;;;;;;;;;;5015443;28;20596;-58
2021/08/03 13:12:02;;;;;;;2.97;1.23;;;;;;;;;;5012783;28;20553;-59
2021/08/03 13:14:31;;;;;;;3.90;1.55;;;;;;;;;;5004962;28;20105;-58
2021/08/03 13:17:00;;;;;;;3.47;1.15;;;;;;;;;;5014911;28;20802;-59
2021/08/03 13:19:29;;;;;;;3.33;1.40;;;;;;;;;;4990573;28;20220;-59
2021/08/03 13:21:58;;;;;;;2.00;1.17;;;;;;;;;;4992894;28;20136;-58
2021/08/03 13:24:27;;;;;;;3.67;0.95;;;;;;;;;;5003181;28;20056;-59
2021/08/03 13:26:57;;;;;;;1.63;1.10;;;;;;;;;;4999037;28;20056;-58
2021/08/03 13:29:25;;;;;;;1.40;1.08;;;;;;;;;;5001777;28;20490;-59
2021/08/03 13:31:54;;;;;;;1.70;1.10;;;;;;;;;;4997656;28;20057;-59
2021/08/03 13:34:22;;;;;;;1.63;1.10;;;;;;;;;;4994229;28;20875;-59
2021/08/03 13:36:51;;;;;;;3.03;1.10;;;;;;;;;;4997655;28;20074;-59
2021/08/03 13:39:19;;;;;;;1.30;1.00;;;;;;;;;;5001010;28;20057;-58
2021/08/03 13:41:48;;;;;;;1.88;1.30;;;;;;;;;;5010835;28;20131;-59
2021/08/03 13:44:18;;;;;;;2.30;1.02;;;;;;;;;;4996413;28;20133;-59
2021/08/03 13:46:46;;;;;;;2.15;1.33;;;;;;;;;;5013862;28;20089;-59
2021/08/03 13:49:15;;;;;;;1.30;1.20;;;;;;;;;;4996538;28;20050;-58
2021/08/03 13:51:43;;;;;;;1.85;1.10;;;;;;;;;;5002044;28;20553;-58
2021/08/03 13:54:12;;;;;;;2.90;1.08;;;;;;;;;;4995449;28;20136;-59
2021/08/03 13:56:40;;;;;;;2.60;1.30;;;;;;;;;;4998087;28;20135;-58
2021/08/03 13:59:08;;;;;;;2.00;0.88;;;;;;;;;;5002606;28;21188;-58
2021/08/03 14:01:39;;;;;;;2.50;1.20;;;;;;;;;;5003806;28;20062;-58
2021/08/03 14:04:08;;;;;;;2.10;1.17;;;;;;;;;;4996089;28;20152;-59
2021/08/03 14:06:37;;;;;;;1.70;1.00;;;;;;;;;;4996080;28;20077;-58
2021/08/03 14:09:06;;;;;;;1.88;1.05;;;;;;;;;;4990039;28;20060;-59
2021/08/03 14:11:38;;;;;;;2.30;1.23;;;;;;;;;;4991752;28;20124;-58
2021/08/03 14:14:07;;;;;;;1.90;1.30;;;;;;;;;;4991377;28;20050;-58
2021/08/03 14:16:37;;;;;;;2.80;1.20;;;;;;;;;;4992978;28;20144;-58
2021/08/03 14:19:09;;;;;;;3.17;1.40;;;;;;;;;;5001637;28;20046;-59
2021/08/03 14:21:38;;;;;;;1.48;1.13;;;;;;;;;;5006038;28;20050;-58
2021/08/03 14:24:06;;;;;;;4.88;1.25;;;;;;;;;;5023069;28;20116;-59
2021/08/03 14:26:35;;;;;;;1.20;1.08;;;;;;;;;;5004329;28;20126;-58
2021/08/03 14:29:03;;;;;;;2.00;1.30;;;;;;;;;;5013652;28;20045;-59
2021/08/03 14:31:31;;;;;;;2.15;1.15;;;;;;;;;;5006176;28;20136;-57
2021/08/03 14:34:00;;;;;;;1.20;1.02;;;;;;;;;;5011521;28;20060;-57
2021/08/03 14:36:30;;;;;;;1.35;1.08;;;;;;;;;;5000427;28;20128;-56
2021/08/03 14:38:58;;;;;;;1.92;1.23;;;;;;;;;;5017943;28;20456;-56
2021/08/03 14:41:27;;;;;;;1.90;1.38;;;;;;;;;;5020299;28;20071;-55
2021/08/03 14:43:55;;;;;;;1.88;1.23;;;;;;;;;;5004210;28;20099;-55
2021/08/03 14:46:25;;;;;;;1.42;0.90;;;;;;;;;;5011286;28;20147;-56
2021/08/03 14:48:55;;;;;;;1.48;1.15;;;;;;;;;;5012493;28;20050;-56
2021/08/03 14:51:24;;;;;;;1.60;1.30;;;;;;;;;;4997760;28;20050;-55
2021/08/03 14:53:53;;;;;;;3.22;1.40;;;;;;;;;;5001692;28;20143;-55
2021/08/03 14:56:22;;;;;;;1.40;1.10;;;;;;;;;;4982119;28;20089;-56
2021/08/03 14:58:51;;;;;;;1.60;1.00;;;;;;;;;;4981859;28;20081;-55
2021/08/03 15:01:19;;;;;;;1.80;1.25;;;;;;;;;;4984292;28;20498;-56
2021/08/03 15:03:47;;;;;;;1.52;1.13;;;;;;;;;;4997418;28;20057;-56